Briefing drone pour Saint-yorre

Rechercher une autre localisation

Conditions de vol :


Nous sommes le : Lundi 06 février 2023
Il est 12:10 UTC (13:10 LT)

Lever de soleil : 06:35 UTC (07:35 LT)
Coucher de soleil : 17:24 UTC (18:24 LT)

Météo

L'essentiel des conditions de vol

VIGILANCE MÉTÉO FRANCE - Allier (03)
Pas de vigilances particulieres
CARTES DES FRONTS
METAR de LFLV
LFLV 061200Z AUTO 04009KT 9999 BKN027 OVC032 06/01 Q1034

Date d'émission: 06/02/2023
Heure d'émission: 12:00 UTC
Vent: 040° pour 9 KT (17 km/h)
Visibilité horizontale: > 10 km
Plafond :
- Nuages morcelés à 2700ft (823m)
- Couvert à 3200ft (975m)
Température: 6 °C
Point de rosée: 1 °C
Humidité: 70%
Pression (QNH): 1034 hPa
Prévision 24h pour Vichy (4 km)
Vent : 87° pour 2 KT (8 km/h)
Temperature Maxi: 0 °C
Temperature Min: 0 °C
Humidité : 74%
Condition : Partiellement nuageux



Warning: count(): Parameter must be an array or an object that implements Countable in /homepages/6/d509196549/htdocs/droneoxygene/briefing.php on line 743
WEBCAM POUR SAINT-YORRE

Réglementation

Voler en sécurité

CARTES AERONAUTIQUE 1/500.000
CARTE AZBA (Reseau basse altitude)
CARTES VAC (LFLV)
SUP AIP




Chargement des AIP...
NOTAM (SAINT-YORRE + Terrain à proximité / FIR )




Chargement des NOTAMS...
CONTACT PREFECTURE 03
Allier (03) : [email protected]


Avertissement : Les données mises à disposition sont indicatives. Oxygène Drone ne pourra être tenu responsable de dégâts causés aux biens et aux personnes.